This is the latest recevied weather packets stored in our database for station/object HARMALA. If no packets are shown the sender has not sent any weather packets the latest 10 day(s).
| Time | Temp. | Humidity | Pressure | Rain* | Wind** | Luminosity | Snow |
|---|---|---|---|---|---|---|---|
| 1777475211 | 8.89° C | 31% | 1023.1 hPa | 0 mm | - | - | - |
| 1777474011 | 10° C | 28% | 1022.9 hPa | 0 mm | - | - | - |
| 1777472811 | 9.44° C | 29% | 1023.2 hPa | 0 mm | - | - | - |
| 1777471611 | 9.44° C | 28% | 1023.2 hPa | 0 mm | - | - | - |
| 1777470410 | 9.44° C | 27% | 1023.5 hPa | 0 mm | - | - | - |
| 1777469211 | 9.44° C | 29% | 1023.6 hPa | 0 mm | - | - | - |
| 1777468010 | 8.89° C | 28% | 1023.8 hPa | 0 mm | - | - | - |
| 1777466810 | 9.44° C | 26% | 1024 hPa | 0 mm | - | - | - |
| 1777465610 | 9.44° C | 28% | 1024.2 hPa | 0 mm | - | - | - |
| 1777464410 | 8.89° C | 28% | 1024.3 hPa | 0 mm | - | - | - |
| 1777463210 | 9.44° C | 28% | 1024.4 hPa | 0 mm | - | - | - |
| 1777462010 | 8.33° C | 28% | 1024.8 hPa | 0 mm | - | - | - |
| 1777460811 | 8.33° C | 29% | 1024.8 hPa | 0 mm | - | - | - |
| 1777459610 | 8.89° C | 27% | 1024.8 hPa | 0 mm | - | - | - |
| 1777458411 | 7.78° C | 32% | 1025.1 hPa | 0 mm | - | - | - |
| 1777457210 | 7.22° C | 34% | 1025.3 hPa | 0 mm | - | - | - |
| 1777456010 | 6.67° C | 33% | 1025.4 hPa | 0 mm | - | - | - |
| 1777454810 | 6.67° C | 36% | 1025.5 hPa | 0 mm | - | - | - |
| 1777453610 | 6.11° C | 37% | 1025.6 hPa | 0 mm | - | - | - |
| 1777452410 | 6.11° C | 37% | 1025.8 hPa | 0 mm | - | - | - |
| 1777451210 | 5.56° C | 37% | 1025.9 hPa | 0 mm | - | - | - |
| 1777450010 | 5° C | 38% | 1026 hPa | 0 mm | - | - | - |
| 1777448810 | 5.56° C | 41% | 1026.1 hPa | 0 mm | - | - | - |
| 1777447609 | 4.44° C | 42% | 1026.2 hPa | 0 mm | - | - | - |
| 1777446409 | 4.44° C | 43% | 1026.3 hPa | 0 mm | - | - | - |
* Rain latest hour (hover to see other rain measurements)
** Current wind speed in m/s (hover to see current wind gust speed)